Time;durP1;ratioP1;P1;durP2;ratioP2;P2;SDS_P1;SDS_P2;PMS_P1;PMS_P2;Temp;Humidity;BMP_temperature;BMP_pressure;BME280_temperature;BME280_humidity;BME280_pressure;Samples;Min_cycle;Max_cycle;Signal;HPM_P1;HPM_P2
2024/02/09 00:00:17;;;;;;;105.50;60.60;;;;;;;-128.00;-1.00;-1.00;103307;1253;1004567;-78
2024/02/09 00:03:04;;;;;;;99.00;55.20;;;;;;;-128.00;-1.00;-1.00;103369;1255;1061119;-77
2024/02/09 00:05:30;;;;;;;96.00;51.50;;;;;;;-128.00;-1.00;-1.00;105656;1252;1004858;-75
2024/02/09 00:08:00;;;;;;;87.30;49.80;;;;;;;-128.00;-1.00;-1.00;105639;1252;1003693;-79
2024/02/09 00:10:26;;;;;;;88.90;49.00;;;;;;;-128.00;-1.00;-1.00;105634;1252;1045936;-79
2024/02/09 00:12:53;;;;;;;90.50;46.90;;;;;;;-128.00;-1.00;-1.00;105589;1252;1004312;-79
2024/02/09 00:15:20;;;;;;;82.90;46.80;;;;;;;-128.00;-1.00;-1.00;105592;1253;1004656;-75
2024/02/09 00:17:47;;;;;;;85.50;45.80;;;;;;;-128.00;-1.00;-1.00;104561;1253;1003918;-79
2024/02/09 00:20:13;;;;;;;82.60;45.20;;;;;;;-128.00;-1.00;-1.00;103174;1253;1003894;-75
2024/02/09 00:22:40;;;;;;;81.80;42.40;;;;;;;-128.00;-1.00;-1.00;103292;1255;1004798;-79
2024/02/09 00:25:10;;;;;;;83.50;40.60;;;;;;;-128.00;-1.00;-1.00;103278;1253;1004232;-75
2024/02/09 00:27:37;;;;;;;103.10;51.20;;;;;;;-128.00;-1.00;-1.00;103298;1252;1062622;-75
2024/02/09 00:30:07;;;;;;;93.00;46.40;;;;;;;-128.00;-1.00;-1.00;103222;1253;1005562;-75
2024/02/09 00:32:34;;;;;;;81.60;45.90;;;;;;;-128.00;-1.00;-1.00;103336;1253;1060197;-80
2024/02/09 00:35:01;;;;;;;81.60;46.40;;;;;;;-128.00;-1.00;-1.00;103255;1253;1005937;-75
2024/02/09 00:37:27;;;;;;;90.20;49.20;;;;;;;-128.00;-1.00;-1.00;103261;1253;1004904;-75
2024/02/09 00:39:54;;;;;;;94.20;52.40;;;;;;;-128.00;-1.00;-1.00;103319;1253;1005155;-79
2024/02/09 00:42:20;;;;;;;96.10;52.60;;;;;;;-128.00;-1.00;-1.00;103226;1253;1004264;-75
2024/02/09 00:44:48;;;;;;;98.60;54.50;;;;;;;-128.00;-1.00;-1.00;103215;1253;1005607;-78
2024/02/09 00:47:15;;;;;;;91.30;51.60;;;;;;;-128.00;-1.00;-1.00;103252;1253;1004861;-79
2024/02/09 00:49:45;;;;;;;87.40;46.90;;;;;;;-128.00;-1.00;-1.00;103284;1253;1005292;-79
2024/02/09 00:52:11;;;;;;;99.50;52.90;;;;;;;-128.00;-1.00;-1.00;103278;1253;1061777;-75
2024/02/09 00:54:38;;;;;;;142.30;62.80;;;;;;;-128.00;-1.00;-1.00;103250;1252;1003711;-75
2024/02/09 00:57:05;;;;;;;129.60;63.00;;;;;;;-128.00;-1.00;-1.00;103285;1253;1004389;-75
2024/02/09 00:59:33;;;;;;;105.00;55.80;;;;;;;-128.00;-1.00;-1.00;103254;1253;1005328;-75
2024/02/09 01:02:01;;;;;;;89.50;50.70;;;;;;;-128.00;-1.00;-1.00;105680;1252;1004658;-79
2024/02/09 01:04:28;;;;;;;105.10;57.50;;;;;;;-128.00;-1.00;-1.00;105728;1252;1004013;-79
2024/02/09 01:06:55;;;;;;;89.50;51.90;;;;;;;-128.00;-1.00;-1.00;105668;1252;1005056;-75
2024/02/09 01:09:22;;;;;;;88.00;49.00;;;;;;;-128.00;-1.00;-1.00;105647;1251;1004327;-79
2024/02/09 01:11:49;;;;;;;94.00;54.00;;;;;;;-128.00;-1.00;-1.00;105646;1252;1003219;-75
2024/02/09 02:45:17;;;;;;;70.30;43.00;;;;;;;-128.00;-1.00;-1.00;103160;1253;1005183;-79
2024/02/09 03:04:18;;;;;;;68.90;38.50;;;;;;;-128.00;-1.00;-1.00;103144;1253;1004823;-75
2024/02/09 03:04:21;;;;;;;65.90;36.10;;;;;;;-128.00;-1.00;-1.00;103156;1253;1048269;-75
2024/02/09 03:06:48;;;;;;;78.40;45.70;;;;;;;-128.00;-1.00;-1.00;103154;1253;1061523;-76
2024/02/09 03:09:14;;;;;;;85.10;51.70;;;;;;;-128.00;-1.00;-1.00;103097;1253;1004672;-79
2024/02/09 03:11:41;;;;;;;96.40;56.40;;;;;;;-128.00;-1.00;-1.00;103139;1252;1003489;-79
2024/02/09 03:14:07;;;;;;;102.30;62.10;;;;;;;-128.00;-1.00;-1.00;103074;1251;1004760;-75
2024/02/09 03:16:34;;;;;;;94.60;59.20;;;;;;;-128.00;-1.00;-1.00;103143;1253;1004525;-75
2024/02/09 03:19:00;;;;;;;109.40;63.20;;;;;;;-128.00;-1.00;-1.00;103173;1253;1004713;-79
2024/02/09 03:21:27;;;;;;;110.30;62.20;;;;;;;-128.00;-1.00;-1.00;103302;1253;1004997;-75
2024/02/09 03:23:53;;;;;;;106.60;64.40;;;;;;;-128.00;-1.00;-1.00;103734;1253;1003882;-78
2024/02/09 03:26:23;;;;;;;99.20;64.60;;;;;;;-128.00;-1.00;-1.00;103581;1253;1004800;-79
2024/02/09 03:28:50;;;;;;;106.30;66.90;;;;;;;-128.00;-1.00;-1.00;103626;1253;1048284;-75
2024/02/09 03:31:17;;;;;;;94.60;54.90;;;;;;;-128.00;-1.00;-1.00;103611;1252;1004609;-79
2024/02/09 03:33:43;;;;;;;85.80;51.60;;;;;;;-128.00;-1.00;-1.00;104011;1252;1004537;-79
2024/02/09 03:36:13;;;;;;;89.50;54.20;;;;;;;-128.00;-1.00;-1.00;105655;1252;1003982;-75
2024/02/09 03:38:41;;;;;;;97.50;56.30;;;;;;;-128.00;-1.00;-1.00;105678;1253;1045951;-75
2024/02/09 03:41:08;;;;;;;96.00;59.50;;;;;;;-128.00;-1.00;-1.00;105631;1252;1004953;-75
2024/02/09 03:43:34;;;;;;;94.20;57.20;;;;;;;-128.00;-1.00;-1.00;105678;1252;1003837;-75
2024/02/09 03:46:00;;;;;;;96.10;60.30;;;;;;;-128.00;-1.00;-1.00;105455;1254;1005286;-79
2024/02/09 03:48:27;;;;;;;145.00;82.10;;;;;;;-128.00;-1.00;-1.00;103253;1253;1003956;-79
2024/02/09 03:50:54;;;;;;;140.10;81.70;;;;;;;-128.00;-1.00;-1.00;103268;1253;1004001;-75
2024/02/09 03:53:20;;;;;;;126.00;77.40;;;;;;;-128.00;-1.00;-1.00;103355;1253;1005084;-75
2024/02/09 03:55:47;;;;;;;98.80;58.50;;;;;;;-128.00;-1.00;-1.00;103304;1252;1004931;-75
2024/02/09 03:58:13;;;;;;;97.10;55.10;;;;;;;-128.00;-1.00;-1.00;103242;1252;1003992;-75
2024/02/09 04:00:40;;;;;;;100.30;58.00;;;;;;;-128.00;-1.00;-1.00;103274;1256;1004989;-79
2024/02/09 04:03:06;;;;;;;97.90;59.60;;;;;;;-128.00;-1.00;-1.00;103310;1253;1003682;-75
2024/02/09 04:05:36;;;;;;;89.50;58.90;;;;;;;-128.00;-1.00;-1.00;103288;1253;1005943;-75
2024/02/09 04:08:04;;;;;;;96.50;56.20;;;;;;;-128.00;-1.00;-1.00;103282;1253;1062248;-79
2024/02/09 04:10:30;;;;;;;91.60;51.80;;;;;;;-128.00;-1.00;-1.00;103277;1253;1004585;-79
2024/02/09 04:12:58;;;;;;;96.80;56.20;;;;;;;-128.00;-1.00;-1.00;103222;1253;1004862;-79
2024/02/09 04:15:25;;;;;;;104.20;62.90;;;;;;;-128.00;-1.00;-1.00;103204;1256;1004060;-79
2024/02/09 04:17:51;;;;;;;102.10;58.50;;;;;;;-128.00;-1.00;-1.00;104982;1253;1006561;-75
2024/02/09 04:20:18;;;;;;;95.50;59.90;;;;;;;-128.00;-1.00;-1.00;105660;1253;1004994;-75
2024/02/09 04:22:44;;;;;;;106.80;65.50;;;;;;;-128.00;-1.00;-1.00;105500;1253;1004656;-78
2024/02/09 04:25:11;;;;;;;92.90;57.60;;;;;;;-128.00;-1.00;-1.00;105254;1253;1004448;-75
2024/02/09 04:27:38;;;;;;;116.10;67.10;;;;;;;-128.00;-1.00;-1.00;103298;1253;1004865;-79
2024/02/09 04:30:05;;;;;;;106.20;66.80;;;;;;;-128.00;-1.00;-1.00;103299;1253;1004257;-75
2024/02/09 04:32:31;;;;;;;88.70;57.10;;;;;;;-128.00;-1.00;-1.00;103312;1253;1005833;-75
2024/02/09 04:34:58;;;;;;;91.60;54.50;;;;;;;-128.00;-1.00;-1.00;103273;1253;1003737;-75
2024/02/09 04:37:25;;;;;;;89.20;52.60;;;;;;;-128.00;-1.00;-1.00;103178;1253;1004515;-75
2024/02/09 04:39:52;;;;;;;100.50;59.20;;;;;;;-128.00;-1.00;-1.00;103164;1252;1004598;-75
2024/02/09 04:42:20;;;;;;;86.50;55.80;;;;;;;-128.00;-1.00;-1.00;103242;1256;1005124;-79
2024/02/09 04:44:47;;;;;;;93.00;58.80;;;;;;;-128.00;-1.00;-1.00;103313;1253;1063066;-75
2024/02/09 04:47:14;;;;;;;94.00;57.20;;;;;;;-128.00;-1.00;-1.00;103286;1253;1004427;-75
2024/02/09 04:49:44;;;;;;;85.50;52.20;;;;;;;-128.00;-1.00;-1.00;103283;1253;1004503;-75
2024/02/09 04:52:11;;;;;;;;;;;;;;;-128.00;-1.00;-1.00;104660;1252;1049435;-75
2024/02/09 04:54:38;;;;;;;58.60;33.80;;;;;;;-128.00;-1.00;-1.00;105656;1252;1005295;-79
2024/02/09 04:57:07;;;;;;;56.70;36.30;;;;;;;-128.00;-1.00;-1.00;105342;1253;1004229;-79
2024/02/09 04:59:34;;;;;;;60.80;38.60;;;;;;;-128.00;-1.00;-1.00;103319;1252;1060637;-75
2024/02/09 05:02:00;;;;;;;65.10;37.00;;;;;;;-128.00;-1.00;-1.00;103311;1253;1005018;-75
2024/02/09 05:04:27;;;;;;;62.60;39.50;;;;;;;-128.00;-1.00;-1.00;103341;1252;1005111;-76
2024/02/09 05:06:54;;;;;;;62.00;40.60;;;;;;;-128.00;-1.00;-1.00;103221;1251;1004384;-79
2024/02/09 05:09:29;;;;;;;65.80;42.70;;;;;;;-128.00;-1.00;-1.00;103313;1253;1004099;-75
2024/02/09 05:11:56;;;;;;;59.00;35.40;;;;;;;-128.00;-1.00;-1.00;103379;1253;1058665;-79
2024/02/09 05:14:22;;;;;;;55.10;31.20;;;;;;;-128.00;-1.00;-1.00;103228;1253;1005618;-79
2024/02/09 05:16:50;;;;;;;52.60;31.80;;;;;;;-128.00;-1.00;-1.00;103284;1253;1004303;-78
2024/02/09 05:19:16;;;;;;;51.40;28.80;;;;;;;-128.00;-1.00;-1.00;103297;1256;1003691;-75
2024/02/09 05:21:43;;;;;;;53.40;31.10;;;;;;;-128.00;-1.00;-1.00;103287;1253;1004411;-79
2024/02/09 05:24:10;;;;;;;50.20;28.70;;;;;;;-128.00;-1.00;-1.00;103250;1255;1004342;-79
2024/02/09 05:26:36;;;;;;;32.70;20.00;;;;;;;-128.00;-1.00;-1.00;103271;1252;1005073;-79
2024/02/09 05:29:03;;;;;;;34.30;20.50;;;;;;;-128.00;-1.00;-1.00;103338;1253;1004250;-75
2024/02/09 05:31:29;;;;;;;26.00;13.40;;;;;;;-128.00;-1.00;-1.00;103525;1253;1004903;-76
2024/02/09 05:33:56;;;;;;;36.50;21.60;;;;;;;-128.00;-1.00;-1.00;103736;1253;1004682;-79
2024/02/09 05:36:24;;;;;;;35.60;21.40;;;;;;;-128.00;-1.00;-1.00;103481;1253;1005335;-79
2024/02/09 05:38:51;;;;;;;23.20;14.00;;;;;;;-128.00;-1.00;-1.00;103614;1255;1004914;-79
2024/02/09 05:41:18;;;;;;;25.40;12.90;;;;;;;-128.00;-1.00;-1.00;103576;1253;1004621;-79
2024/02/09 05:43:48;;;;;;;28.40;13.70;;;;;;;-128.00;-1.00;-1.00;103468;1252;1004592;-75
2024/02/09 05:46:15;;;;;;;30.90;19.20;;;;;;;-128.00;-1.00;-1.00;103402;1253;1060541;-74
2024/02/09 05:48:43;;;;;;;27.30;16.00;;;;;;;-128.00;-1.00;-1.00;103434;1253;1004904;-75
2024/02/09 05:51:14;;;;;;;23.70;14.50;;;;;;;-128.00;-1.00;-1.00;105662;1252;1003473;-79
2024/02/09 05:53:41;;;;;;;21.60;14.80;;;;;;;-128.00;-1.00;-1.00;105652;1252;1045177;-75
2024/02/09 05:56:15;;;;;;;26.70;18.80;;;;;;;-128.00;-1.00;-1.00;105676;1252;1004482;-79
2024/02/09 05:58:42;;;;;;;30.80;18.40;;;;;;;-128.00;-1.00;-1.00;103366;1252;1061213;-79
2024/02/09 06:01:08;;;;;;;25.40;16.30;;;;;;;-128.00;-1.00;-1.00;103287;1253;1004767;-75
2024/02/09 06:03:35;;;;;;;24.30;15.00;;;;;;;-128.00;-1.00;-1.00;104296;1251;1004747;-75
2024/02/09 06:06:02;;;;;;;26.20;13.70;;;;;;;-128.00;-1.00;-1.00;105578;1253;1003333;-80
2024/02/09 06:08:28;;;;;;;27.90;13.90;;;;;;;-128.00;-1.00;-1.00;104598;1253;1004394;-79
2024/02/09 06:10:55;;;;;;;29.50;16.90;;;;;;;-128.00;-1.00;-1.00;103403;1252;1006101;-75
2024/02/09 06:13:21;;;;;;;31.60;18.70;;;;;;;-128.00;-1.00;-1.00;103425;1253;1004175;-79
2024/02/09 06:15:49;;;;;;;29.20;18.00;;;;;;;-128.00;-1.00;-1.00;103235;1251;1003514;-80
2024/02/09 06:18:16;;;;;;;27.90;18.80;;;;;;;-128.00;-1.00;-1.00;103362;1253;1004137;-79
2024/02/09 06:20:42;;;;;;;33.00;21.20;;;;;;;-128.00;-1.00;-1.00;103390;1253;1003923;-79
2024/02/09 06:23:08;;;;;;;31.60;21.80;;;;;;;-128.00;-1.00;-1.00;103338;1253;1004766;-75
2024/02/09 06:25:36;;;;;;;32.70;21.30;;;;;;;-128.00;-1.00;-1.00;103263;1253;1004660;-75
2024/02/09 06:28:03;;;;;;;30.40;20.70;;;;;;;-128.00;-1.00;-1.00;103232;1252;1003503;-80
2024/02/09 06:30:30;;;;;;;36.90;25.70;;;;;;;-128.00;-1.00;-1.00;103285;1253;1004339;-79
2024/02/09 06:32:56;;;;;;;45.20;32.60;;;;;;;-128.00;-1.00;-1.00;103341;1253;1003768;-74
2024/02/09 06:35:23;;;;;;;48.60;32.10;;;;;;;-128.00;-1.00;-1.00;103311;1253;1004712;-75
2024/02/09 06:37:52;;;;;;;44.80;30.40;;;;;;;-128.00;-1.00;-1.00;104138;1253;1004363;-75
2024/02/09 06:40:19;;;;;;;42.20;32.00;;;;;;;-128.00;-1.00;-1.00;105679;1251;1059185;-75
2024/02/09 06:42:47;;;;;;;54.70;38.70;;;;;;;-128.00;-1.00;-1.00;105671;1253;1004643;-79
2024/02/09 06:45:14;;;;;;;50.10;37.20;;;;;;;-128.00;-1.00;-1.00;105676;1252;1004861;-79
2024/02/09 06:47:41;;;;;;;57.20;36.00;;;;;;;-128.00;-1.00;-1.00;105629;1252;1004304;-79
2024/02/09 06:50:10;;;;;;;51.30;36.90;;;;;;;-128.00;-1.00;-1.00;105644;1253;1004449;-75
2024/02/09 06:52:40;;;;;;;46.90;34.10;;;;;;;-128.00;-1.00;-1.00;105610;1253;1058483;-79
2024/02/09 06:55:08;;;;;;;54.80;39.40;;;;;;;-128.00;-1.00;-1.00;105606;1252;1045237;-79
2024/02/09 06:57:35;;;;;;;52.70;34.30;;;;;;;-128.00;-1.00;-1.00;105675;1253;1005095;-79
2024/02/09 07:00:03;;;;;;;52.00;36.60;;;;;;;-128.00;-1.00;-1.00;105618;1253;1005174;-75
2024/02/09 07:02:30;;;;;;;55.80;38.10;;;;;;;-128.00;-1.00;-1.00;104270;1253;1004572;-75
2024/02/09 07:05:00;;;;;;;59.80;39.00;;;;;;;-128.00;-1.00;-1.00;103282;1253;1003681;-79
2024/02/09 07:07:28;;;;;;;56.10;34.60;;;;;;;-128.00;-1.00;-1.00;103373;1253;1045640;-74
2024/02/09 07:09:55;;;;;;;49.00;33.60;;;;;;;-128.00;-1.00;-1.00;103279;1253;1005349;-75
2024/02/09 07:12:21;;;;;;;88.80;61.50;;;;;;;-128.00;-1.00;-1.00;103400;1253;1005102;-74
2024/02/09 07:14:48;;;;;;;79.20;53.20;;;;;;;-128.00;-1.00;-1.00;103411;1253;1003987;-79
2024/02/09 07:17:14;;;;;;;59.50;40.00;;;;;;;-128.00;-1.00;-1.00;103414;1253;1004694;-79
2024/02/09 07:19:41;;;;;;;56.60;36.70;;;;;;;-128.00;-1.00;-1.00;103392;1251;1004684;-79
2024/02/09 07:22:07;;;;;;;52.80;32.20;;;;;;;-128.00;-1.00;-1.00;103428;1253;1006063;-79
2024/02/09 07:24:34;;;;;;;52.10;32.40;;;;;;;-128.00;-1.00;-1.00;103378;1253;1004551;-79
2024/02/09 07:27:01;;;;;;;50.50;36.40;;;;;;;-128.00;-1.00;-1.00;103499;1253;1004345;-74
2024/02/09 07:29:27;;;;;;;53.80;32.40;;;;;;;-128.00;-1.00;-1.00;103678;1252;1005245;-80
2024/02/09 07:31:54;;;;;;;126.70;73.50;;;;;;;-128.00;-1.00;-1.00;103613;1253;1003604;-80
2024/02/09 07:34:20;;;;;;;152.10;91.80;;;;;;;-128.00;-1.00;-1.00;103588;1253;1003923;-74
2024/02/09 07:36:47;;;;;;;81.90;50.00;;;;;;;-128.00;-1.00;-1.00;103608;1256;1003639;-79
2024/02/09 07:39:13;;;;;;;80.00;49.30;;;;;;;-128.00;-1.00;-1.00;103547;1253;1005260;-74
2024/02/09 07:41:40;;;;;;;62.10;39.60;;;;;;;-128.00;-1.00;-1.00;103693;1253;1005304;-74
2024/02/09 07:44:09;;;;;;;67.10;39.90;;;;;;;-128.00;-1.00;-1.00;103434;1253;1004960;-79
2024/02/09 07:46:37;;;;;;;51.90;34.80;;;;;;;-128.00;-1.00;-1.00;103505;1254;1049850;-75
2024/02/09 07:49:03;;;;;;;52.10;30.40;;;;;;;-128.00;-1.00;-1.00;103392;1253;1004628;-79
2024/02/09 07:51:30;;;;;;;54.10;34.80;;;;;;;-128.00;-1.00;-1.00;103372;1253;1004556;-80
2024/02/09 07:53:57;;;;;;;47.20;29.60;;;;;;;-128.00;-1.00;-1.00;103388;1253;1005242;-79
2024/02/09 07:56:23;;;;;;;49.70;31.70;;;;;;;-128.00;-1.00;-1.00;103349;1253;1004223;-74
2024/02/09 07:58:51;;;;;;;65.40;45.80;;;;;;;-128.00;-1.00;-1.00;103612;1253;1003558;-74
2024/02/09 08:01:21;;;;;;;60.10;38.20;;;;;;;-128.00;-1.00;-1.00;103663;1253;1005099;-79
2024/02/09 08:03:49;;;;;;;63.40;39.20;;;;;;;-128.00;-1.00;-1.00;103552;1253;1057848;-74
2024/02/09 08:06:16;;;;;;;79.00;46.10;;;;;;;-128.00;-1.00;-1.00;103760;1251;1004514;-78
2024/02/09 08:08:44;;;;;;;68.40;42.90;;;;;;;-128.00;-1.00;-1.00;103774;1253;1005163;-75
2024/02/09 08:11:10;;;;;;;85.00;49.90;;;;;;;-128.00;-1.00;-1.00;103578;1253;1003805;-79
2024/02/09 08:13:39;;;;;;;95.80;55.70;;;;;;;-128.00;-1.00;-1.00;103469;1253;1004883;-79
2024/02/09 08:16:06;;;;;;;74.80;44.30;;;;;;;-128.00;-1.00;-1.00;103386;1253;1059082;-79
2024/02/09 08:18:33;;;;;;;96.70;57.50;;;;;;;-128.00;-1.00;-1.00;103532;1254;1003929;-79
2024/02/09 08:21:00;;;;;;;88.90;53.10;;;;;;;-128.00;-1.00;-1.00;103483;1252;1004261;-75
2024/02/09 08:23:27;;;;;;;88.40;55.10;;;;;;;-128.00;-1.00;-1.00;103505;1251;1004297;-74
2024/02/09 08:25:54;;;;;;;141.20;80.50;;;;;;;-128.00;-1.00;-1.00;105647;1253;1004557;-80
2024/02/09 08:28:20;;;;;;;164.80;96.20;;;;;;;-128.00;-1.00;-1.00;105576;1253;1003590;-79
2024/02/09 08:30:47;;;;;;;132.40;77.50;;;;;;;-128.00;-1.00;-1.00;103411;1251;1004075;-79
2024/02/09 08:33:13;;;;;;;144.70;88.90;;;;;;;-128.00;-1.00;-1.00;103366;1251;1005455;-80
2024/02/09 08:35:40;;;;;;;77.20;49.10;;;;;;;-128.00;-1.00;-1.00;103743;1255;1003858;-79
2024/02/09 08:38:07;;;;;;;53.30;31.90;;;;;;;-128.00;-1.00;-1.00;104325;1252;1003900;-79
2024/02/09 08:40:34;;;;;;;60.30;34.90;;;;;;;-128.00;-1.00;-1.00;103465;1253;1004619;-75
2024/02/09 08:43:00;;;;;;;51.00;27.50;;;;;;;-128.00;-1.00;-1.00;103423;1253;1005166;-75
2024/02/09 08:45:27;;;;;;;51.00;24.80;;;;;;;-128.00;-1.00;-1.00;103211;1253;1005095;-79
2024/02/09 08:47:53;;;;;;;46.50;23.90;;;;;;;-128.00;-1.00;-1.00;103179;1254;1005160;-75
2024/02/09 08:50:20;;;;;;;63.10;33.50;;;;;;;-128.00;-1.00;-1.00;103183;1254;1004506;-75
2024/02/09 08:52:46;;;;;;;48.10;30.30;;;;;;;-128.00;-1.00;-1.00;103177;1255;1004236;-75
2024/02/09 08:55:13;;;;;;;53.80;35.30;;;;;;;-128.00;-1.00;-1.00;103132;1251;1004002;-79
2024/02/09 08:57:42;;;;;;;50.60;34.60;;;;;;;-128.00;-1.00;-1.00;103186;1253;1004440;-79
2024/02/09 09:00:08;;;;;;;;;;;;;;;-128.00;-1.00;-1.00;103250;1253;1047504;-75
2024/02/09 09:02:35;;;;;;;45.70;27.80;;;;;;;-128.00;-1.00;-1.00;103244;1255;1004649;-75
2024/02/09 09:05:01;;;;;;;42.30;23.10;;;;;;;-128.00;-1.00;-1.00;103059;1254;1004703;-75
2024/02/09 09:07:28;;;;;;;34.50;18.80;;;;;;;-128.00;-1.00;-1.00;103181;1253;1004290;-75
2024/02/09 09:09:54;;;;;;;30.80;15.70;;;;;;;-128.00;-1.00;-1.00;103288;1253;1004117;-79
2024/02/09 09:12:21;;;;;;;29.60;16.90;;;;;;;-128.00;-1.00;-1.00;103324;1254;1004785;-75
2024/02/09 09:14:47;;;;;;;23.50;11.40;;;;;;;-128.00;-1.00;-1.00;103138;1253;1004156;-75
2024/02/09 09:17:14;;;;;;;23.30;9.40;;;;;;;-128.00;-1.00;-1.00;103162;1253;1004759;-80
2024/02/09 09:19:41;;;;;;;23.70;10.10;;;;;;;-128.00;-1.00;-1.00;103175;1253;1004865;-79
2024/02/09 09:22:08;;;;;;;17.00;8.50;;;;;;;-128.00;-1.00;-1.00;103217;1255;1004055;-75
2024/02/09 09:24:34;;;;;;;27.80;12.40;;;;;;;-128.00;-1.00;-1.00;103178;1254;1004280;-75
2024/02/09 09:27:01;;;;;;;19.10;11.60;;;;;;;-128.00;-1.00;-1.00;103225;1252;1004339;-79
2024/02/09 09:29:27;;;;;;;33.50;15.00;;;;;;;-128.00;-1.00;-1.00;103274;1252;1004720;-79
2024/02/09 09:31:54;;;;;;;24.90;13.00;;;;;;;-128.00;-1.00;-1.00;103237;1253;1003851;-75
2024/02/09 09:34:20;;;;;;;30.30;16.90;;;;;;;-128.00;-1.00;-1.00;103151;1256;1005419;-80
2024/02/09 09:36:47;;;;;;;34.60;16.40;;;;;;;-128.00;-1.00;-1.00;103210;1255;1003840;-74
2024/02/09 09:39:14;;;;;;;37.20;15.90;;;;;;;-128.00;-1.00;-1.00;103217;1254;1005346;-80
2024/02/09 09:41:40;;;;;;;40.80;20.60;;;;;;;-128.00;-1.00;-1.00;103185;1253;1006683;-75
2024/02/09 09:44:07;;;;;;;37.60;20.80;;;;;;;-128.00;-1.00;-1.00;103114;1251;1005136;-75
2024/02/09 09:46:40;;;;;;;27.60;17.20;;;;;;;-128.00;-1.00;-1.00;103095;1254;1005312;-75
2024/02/09 09:49:10;;;;;;;25.30;14.00;;;;;;;-128.00;-1.00;-1.00;103262;1252;1047246;-80
2024/02/09 09:51:36;;;;;;;26.60;15.80;;;;;;;-128.00;-1.00;-1.00;103113;1253;1062653;-74
2024/02/09 09:54:03;;;;;;;29.90;16.00;;;;;;;-128.00;-1.00;-1.00;103198;1254;1003783;-80
2024/02/09 09:56:30;;;;;;;31.40;13.70;;;;;;;-128.00;-1.00;-1.00;103147;1254;1004181;-76
2024/02/09 09:58:57;;;;;;;30.70;16.00;;;;;;;-128.00;-1.00;-1.00;103393;1251;1004313;-80
2024/02/09 10:01:24;;;;;;;36.40;16.60;;;;;;;-128.00;-1.00;-1.00;103281;1251;1004104;-75
2024/02/09 10:03:50;;;;;;;32.80;16.30;;;;;;;-128.00;-1.00;-1.00;103170;1253;1005018;-79
2024/02/09 10:06:17;;;;;;;23.90;12.90;;;;;;;-128.00;-1.00;-1.00;103200;1253;1004635;-79
2024/02/09 10:08:43;;;;;;;30.00;13.50;;;;;;;-128.00;-1.00;-1.00;103333;1257;1004803;-75
2024/02/09 10:11:10;;;;;;;25.50;13.90;;;;;;;-128.00;-1.00;-1.00;103194;1252;1004207;-75
2024/02/09 10:13:40;;;;;;;27.30;14.40;;;;;;;-128.00;-1.00;-1.00;103404;1254;1004942;-75
2024/02/09 10:16:07;;;;;;;23.30;10.80;;;;;;;-128.00;-1.00;-1.00;103314;1253;1061190;-79
2024/02/09 10:18:35;;;;;;;29.30;13.20;;;;;;;-128.00;-1.00;-1.00;103378;1253;1004381;-75
2024/02/09 10:21:02;;;;;;;27.30;11.80;;;;;;;-128.00;-1.00;-1.00;103065;1254;1004973;-75
2024/02/09 10:23:29;;;;;;;26.20;11.50;;;;;;;-128.00;-1.00;-1.00;103228;1257;1004643;-75
2024/02/09 10:26:02;;;;;;;32.40;14.20;;;;;;;-128.00;-1.00;-1.00;103106;1255;1005209;-75
2024/02/09 10:28:29;;;;;;;27.10;11.40;;;;;;;-128.00;-1.00;-1.00;103230;1253;1065113;-75
2024/02/09 10:30:59;;;;;;;26.20;14.30;;;;;;;-128.00;-1.00;-1.00;103138;1255;1004805;-79
2024/02/09 10:33:26;;;;;;;24.20;12.40;;;;;;;-128.00;-1.00;-1.00;103520;1252;1061337;-80
2024/02/09 10:35:56;;;;;;;26.70;11.80;;;;;;;-128.00;-1.00;-1.00;103187;1253;1004343;-75
2024/02/09 10:38:23;;;;;;;25.90;12.90;;;;;;;-128.00;-1.00;-1.00;103478;1257;1048851;-80
2024/02/09 10:40:53;;;;;;;29.20;12.70;;;;;;;-128.00;-1.00;-1.00;103518;1256;1004087;-75
2024/02/09 10:43:25;;;;;;;19.80;11.70;;;;;;;-128.00;-1.00;-1.00;103200;1256;1058018;-80
2024/02/09 10:45:51;;;;;;;28.10;12.80;;;;;;;-128.00;-1.00;-1.00;103213;1256;1059394;-80
2024/02/09 10:48:21;;;;;;;26.30;11.20;;;;;;;-128.00;-1.00;-1.00;103402;1254;1005383;-80
2024/02/09 10:50:48;;;;;;;31.30;11.80;;;;;;;-128.00;-1.00;-1.00;103211;1252;1047554;-79
2024/02/09 10:53:16;;;;;;;27.00;12.50;;;;;;;-128.00;-1.00;-1.00;103086;1259;1005008;-75
2024/02/09 10:55:44;;;;;;;26.70;11.60;;;;;;;-128.00;-1.00;-1.00;103244;1257;1004798;-81
2024/02/09 10:58:11;;;;;;;23.40;11.40;;;;;;;-128.00;-1.00;-1.00;103155;1256;1004077;-80
2024/02/09 11:00:38;;;;;;;27.40;9.80;;;;;;;-128.00;-1.00;-1.00;103231;1254;1004730;-80
2024/02/09 11:03:04;;;;;;;21.20;7.40;;;;;;;-128.00;-1.00;-1.00;103259;1255;1004848;-79
2024/02/09 11:05:31;;;;;;;21.90;9.20;;;;;;;-128.00;-1.00;-1.00;103161;1256;1004566;-79
2024/02/09 11:07:57;;;;;;;20.70;8.20;;;;;;;-128.00;-1.00;-1.00;103313;1253;1004963;-75
2024/02/09 11:10:24;;;;;;;24.90;8.10;;;;;;;-128.00;-1.00;-1.00;103271;1257;1005521;-80
2024/02/09 11:12:57;;;;;;;20.40;8.00;;;;;;;-128.00;-1.00;-1.00;103335;1254;1003697;-75
2024/02/09 11:15:24;;;;;;;24.60;10.60;;;;;;;-128.00;-1.00;-1.00;103291;1253;1047259;-79
2024/02/09 11:17:50;;;;;;;21.20;8.20;;;;;;;-128.00;-1.00;-1.00;103256;1253;1005029;-75
2024/02/09 11:20:17;;;;;;;17.90;9.10;;;;;;;-128.00;-1.00;-1.00;103256;1254;1004361;-80
2024/02/09 11:22:44;;;;;;;23.60;8.90;;;;;;;-128.00;-1.00;-1.00;103250;1254;1004532;-79
2024/02/09 11:25:11;;;;;;;21.30;9.80;;;;;;;-128.00;-1.00;-1.00;103336;1257;1004142;-75
2024/02/09 11:27:39;;;;;;;30.10;9.50;;;;;;;-128.00;-1.00;-1.00;103200;1252;1003851;-76
2024/02/09 11:30:06;;;;;;;;;;;;;;;-128.00;-1.00;-1.00;103173;1257;1062647;-80
2024/02/09 11:32:33;;;;;;;27.30;11.70;;;;;;;-128.00;-1.00;-1.00;103278;1257;1004513;-79
2024/02/09 11:35:00;;;;;;;26.30;8.80;;;;;;;-128.00;-1.00;-1.00;103204;1253;1004990;-80
2024/02/09 11:37:26;;;;;;;18.50;7.10;;;;;;;-128.00;-1.00;-1.00;103228;1254;1004322;-80
2024/02/09 11:39:53;;;;;;;19.90;8.40;;;;;;;-128.00;-1.00;-1.00;103201;1257;1004272;-75
2024/02/09 11:42:20;;;;;;;26.80;9.50;;;;;;;-128.00;-1.00;-1.00;103376;1254;1004698;-80
2024/02/09 11:44:46;;;;;;;31.10;13.40;;;;;;;-128.00;-1.00;-1.00;103263;1256;1005402;-75
2024/02/09 11:47:13;;;;;;;25.80;11.70;;;;;;;-128.00;-1.00;-1.00;103336;1254;1003708;-80
2024/02/09 11:49:43;;;;;;;19.30;10.90;;;;;;;-128.00;-1.00;-1.00;103255;1253;1004774;-80
2024/02/09 11:52:11;;;;;;;32.60;13.10;;;;;;;-128.00;-1.00;-1.00;103417;1255;1047039;-75
2024/02/09 11:54:38;;;;;;;22.00;9.80;;;;;;;-128.00;-1.00;-1.00;103326;1251;1003956;-75
2024/02/09 11:57:06;;;;;;;21.30;9.00;;;;;;;-128.00;-1.00;-1.00;103228;1254;1004217;-75
2024/02/09 11:59:32;;;;;;;22.40;9.70;;;;;;;-128.00;-1.00;-1.00;103535;1253;1003299;-75
2024/02/09 12:02:00;;;;;;;28.30;9.90;;;;;;;-128.00;-1.00;-1.00;103429;1253;1003435;-75
2024/02/09 12:04:26;;;;;;;22.10;8.40;;;;;;;-128.00;-1.00;-1.00;103048;1253;1005231;-80
2024/02/09 12:06:53;;;;;;;16.60;8.30;;;;;;;-128.00;-1.00;-1.00;103361;1255;1004167;-75
2024/02/09 12:09:19;;;;;;;20.90;7.60;;;;;;;-128.00;-1.00;-1.00;103222;1252;1004255;-75
2024/02/09 12:11:46;;;;;;;18.20;8.60;;;;;;;-128.00;-1.00;-1.00;103492;1256;1003941;-75
2024/02/09 12:14:13;;;;;;;20.40;9.80;;;;;;;-128.00;-1.00;-1.00;103190;1258;1004762;-81
2024/02/09 12:16:40;;;;;;;28.00;9.60;;;;;;;-128.00;-1.00;-1.00;103360;1254;1005163;-76
2024/02/09 12:19:06;;;;;;;21.50;9.20;;;;;;;-128.00;-1.00;-1.00;103320;1257;1004512;-75
2024/02/09 12:21:33;;;;;;;18.90;8.30;;;;;;;-128.00;-1.00;-1.00;103277;1253;1004818;-76
2024/02/09 12:23:59;;;;;;;22.90;9.50;;;;;;;-128.00;-1.00;-1.00;103263;1254;1004680;-75
2024/02/09 12:26:26;;;;;;;23.60;11.60;;;;;;;-128.00;-1.00;-1.00;103162;1254;1004254;-80
2024/02/09 12:28:52;;;;;;;18.50;9.30;;;;;;;-128.00;-1.00;-1.00;103256;1254;1004747;-80
2024/02/09 12:31:21;;;;;;;24.30;10.10;;;;;;;-128.00;-1.00;-1.00;103289;1255;1005255;-81
2024/02/09 12:33:49;;;;;;;38.00;15.50;;;;;;;-128.00;-1.00;-1.00;103276;1253;1058120;-80
2024/02/09 12:36:20;;;;;;;21.70;8.90;;;;;;;-128.00;-1.00;-1.00;103226;1254;1004823;-75
2024/02/09 12:38:50;;;;;;;28.90;14.50;;;;;;;-128.00;-1.00;-1.00;103305;1253;1046238;-80
2024/02/09 12:41:17;;;;;;;34.20;14.10;;;;;;;-128.00;-1.00;-1.00;103512;1254;1047833;-80
2024/02/09 12:43:44;;;;;;;103.00;50.70;;;;;;;-128.00;-1.00;-1.00;103410;1254;1005371;-80
2024/02/09 12:46:11;;;;;;;53.60;25.60;;;;;;;-128.00;-1.00;-1.00;103116;1253;1004400;-75